sensor_id;sensor_type;location;lat;lon;timestamp;P1;durP1;ratioP1;P2;durP2;ratioP2
76788;SDS011;65740;52.464;13.446;2023-06-22T00:00:56;13.80;;;12.60;;
76788;SDS011;65740;52.464;13.446;2023-06-22T00:03:24;14.00;;;13.00;;
76788;SDS011;65740;52.464;13.446;2023-06-22T00:05:50;12.20;;;11.30;;
76788;SDS011;65740;52.464;13.446;2023-06-22T00:08:17;13.27;;;12.20;;
76788;SDS011;65740;52.464;13.446;2023-06-22T00:10:43;12.53;;;11.53;;
76788;SDS011;65740;52.464;13.446;2023-06-22T00:13:09;12.23;;;11.33;;
76788;SDS011;65740;52.464;13.446;2023-06-22T00:15:36;13.10;;;12.10;;
76788;SDS011;65740;52.464;13.446;2023-06-22T00:18:03;12.30;;;11.40;;
76788;SDS011;65740;52.464;13.446;2023-06-22T00:20:30;12.70;;;11.80;;
76788;SDS011;65740;52.464;13.446;2023-06-22T00:22:56;12.33;;;11.43;;
76788;SDS011;65740;52.464;13.446;2023-06-22T00:25:22;13.17;;;12.07;;
76788;SDS011;65740;52.464;13.446;2023-06-22T00:27:48;12.43;;;11.43;;
76788;SDS011;65740;52.464;13.446;2023-06-22T00:30:18;13.27;;;12.30;;
76788;SDS011;65740;52.464;13.446;2023-06-22T00:32:44;12.90;;;11.90;;
76788;SDS011;65740;52.464;13.446;2023-06-22T00:35:13;12.03;;;11.17;;
76788;SDS011;65740;52.464;13.446;2023-06-22T00:37:39;12.40;;;11.50;;
76788;SDS011;65740;52.464;13.446;2023-06-22T00:40:08;12.40;;;11.40;;
76788;SDS011;65740;52.464;13.446;2023-06-22T00:42:36;11.80;;;10.90;;
76788;SDS011;65740;52.464;13.446;2023-06-22T00:45:05;11.60;;;10.70;;
76788;SDS011;65740;52.464;13.446;2023-06-22T00:47:32;12.07;;;11.17;;
76788;SDS011;65740;52.464;13.446;2023-06-22T00:50:00;12.10;;;11.20;;
76788;SDS011;65740;52.464;13.446;2023-06-22T00:52:26;11.97;;;11.07;;
76788;SDS011;65740;52.464;13.446;2023-06-22T00:54:54;12.40;;;11.50;;
76788;SDS011;65740;52.464;13.446;2023-06-22T00:57:21;12.00;;;11.10;;
76788;SDS011;65740;52.464;13.446;2023-06-22T00:59:48;11.23;;;10.43;;
76788;SDS011;65740;52.464;13.446;2023-06-22T01:02:14;11.70;;;10.80;;
76788;SDS011;65740;52.464;13.446;2023-06-22T01:04:40;12.80;;;11.90;;
76788;SDS011;65740;52.464;13.446;2023-06-22T01:07:10;11.37;;;10.50;;
76788;SDS011;65740;52.464;13.446;2023-06-22T01:13:01;11.97;;;11.10;;
76788;SDS011;65740;52.464;13.446;2023-06-22T01:15:33;11.03;;;10.23;;
76788;SDS011;65740;52.464;13.446;2023-06-22T01:18:04;11.23;;;10.43;;
76788;SDS011;65740;52.464;13.446;2023-06-22T01:20:33;11.93;;;11.03;;
76788;SDS011;65740;52.464;13.446;2023-06-22T01:25:31;11.13;;;10.33;;
76788;SDS011;65740;52.464;13.446;2023-06-22T01:30:51;11.00;;;10.20;;
76788;SDS011;65740;52.464;13.446;2023-06-22T01:33:28;11.83;;;10.93;;
76788;SDS011;65740;52.464;13.446;2023-06-22T01:35:56;11.70;;;10.90;;
76788;SDS011;65740;52.464;13.446;2023-06-22T01:38:22;12.13;;;11.20;;
76788;SDS011;65740;52.464;13.446;2023-06-22T01:40:49;11.40;;;10.60;;
76788;SDS011;65740;52.464;13.446;2023-06-22T01:43:15;11.70;;;10.83;;
76788;SDS011;65740;52.464;13.446;2023-06-22T01:45:41;11.40;;;10.50;;
76788;SDS011;65740;52.464;13.446;2023-06-22T01:48:07;11.00;;;10.20;;
76788;SDS011;65740;52.464;13.446;2023-06-22T01:50:33;10.60;;;9.90;;
76788;SDS011;65740;52.464;13.446;2023-06-22T01:52:59;10.73;;;10.00;;
76788;SDS011;65740;52.464;13.446;2023-06-22T01:55:24;10.83;;;10.00;;
76788;SDS011;65740;52.464;13.446;2023-06-22T01:57:50;10.57;;;9.77;;
76788;SDS011;65740;52.464;13.446;2023-06-22T02:00:18;11.60;;;10.77;;
76788;SDS011;65740;52.464;13.446;2023-06-22T02:05:22;11.83;;;10.93;;
76788;SDS011;65740;52.464;13.446;2023-06-22T02:10:35;10.30;;;9.50;;
76788;SDS011;65740;52.464;13.446;2023-06-22T02:13:03;10.70;;;9.90;;
76788;SDS011;65740;52.464;13.446;2023-06-22T02:15:31;10.20;;;9.50;;
76788;SDS011;65740;52.464;13.446;2023-06-22T02:17:57;11.67;;;10.70;;
76788;SDS011;65740;52.464;13.446;2023-06-22T02:20:23;10.83;;;10.03;;
76788;SDS011;65740;52.464;13.446;2023-06-22T02:22:49;11.10;;;10.30;;
76788;SDS011;65740;52.464;13.446;2023-06-22T02:25:15;11.47;;;10.67;;
76788;SDS011;65740;52.464;13.446;2023-06-22T02:27:41;10.80;;;10.10;;
76788;SDS011;65740;52.464;13.446;2023-06-22T02:30:09;11.50;;;10.70;;
76788;SDS011;65740;52.464;13.446;2023-06-22T02:32:35;11.83;;;10.93;;
76788;SDS011;65740;52.464;13.446;2023-06-22T02:35:01;10.97;;;10.17;;
76788;SDS011;65740;52.464;13.446;2023-06-22T02:37:31;10.20;;;9.50;;
76788;SDS011;65740;52.464;13.446;2023-06-22T02:39:57;11.27;;;10.37;;
76788;SDS011;65740;52.464;13.446;2023-06-22T02:42:23;10.37;;;9.60;;
76788;SDS011;65740;52.464;13.446;2023-06-22T02:44:48;10.30;;;9.60;;
76788;SDS011;65740;52.464;13.446;2023-06-22T02:47:14;10.87;;;10.07;;
76788;SDS011;65740;52.464;13.446;2023-06-22T02:49:40;11.40;;;10.60;;
76788;SDS011;65740;52.464;13.446;2023-06-22T02:52:06;11.73;;;10.93;;
76788;SDS011;65740;52.464;13.446;2023-06-22T02:54:32;11.20;;;10.40;;
76788;SDS011;65740;52.464;13.446;2023-06-22T02:56:58;10.40;;;9.57;;
76788;SDS011;65740;52.464;13.446;2023-06-22T02:59:27;11.83;;;10.93;;
76788;SDS011;65740;52.464;13.446;2023-06-22T03:01:53;10.50;;;9.70;;
76788;SDS011;65740;52.464;13.446;2023-06-22T03:04:22;10.63;;;9.90;;
76788;SDS011;65740;52.464;13.446;2023-06-22T03:06:47;11.03;;;10.23;;
76788;SDS011;65740;52.464;13.446;2023-06-22T03:09:16;10.63;;;9.83;;
76788;SDS011;65740;52.464;13.446;2023-06-22T03:11:42;11.43;;;10.63;;
76788;SDS011;65740;52.464;13.446;2023-06-22T03:14:08;10.57;;;9.80;;
76788;SDS011;65740;52.464;13.446;2023-06-22T03:16:33;10.43;;;9.73;;
76788;SDS011;65740;52.464;13.446;2023-06-22T03:18:59;10.37;;;9.57;;
76788;SDS011;65740;52.464;13.446;2023-06-22T03:21:26;10.40;;;9.63;;
76788;SDS011;65740;52.464;13.446;2023-06-22T03:23:53;10.30;;;9.57;;
76788;SDS011;65740;52.464;13.446;2023-06-22T03:26:19;10.27;;;9.57;;
76788;SDS011;65740;52.464;13.446;2023-06-22T03:28:45;9.50;;;8.90;;
76788;SDS011;65740;52.464;13.446;2023-06-22T03:31:11;10.17;;;9.47;;
76788;SDS011;65740;52.464;13.446;2023-06-22T03:33:36;10.67;;;9.97;;
76788;SDS011;65740;52.464;13.446;2023-06-22T03:36:02;10.00;;;9.30;;
76788;SDS011;65740;52.464;13.446;2023-06-22T03:38:27;9.83;;;9.10;;
76788;SDS011;65740;52.464;13.446;2023-06-22T03:40:53;9.60;;;8.90;;
76788;SDS011;65740;52.464;13.446;2023-06-22T03:43:19;9.50;;;8.90;;
76788;SDS011;65740;52.464;13.446;2023-06-22T03:45:44;10.07;;;9.30;;
76788;SDS011;65740;52.464;13.446;2023-06-22T03:48:10;9.90;;;9.20;;
76788;SDS011;65740;52.464;13.446;2023-06-22T03:50:37;10.47;;;9.77;;
76788;SDS011;65740;52.464;13.446;2023-06-22T03:53:03;10.23;;;9.63;;
76788;SDS011;65740;52.464;13.446;2023-06-22T03:55:28;10.53;;;9.83;;
76788;SDS011;65740;52.464;13.446;2023-06-22T03:57:54;10.53;;;9.83;;
76788;SDS011;65740;52.464;13.446;2023-06-22T04:00:22;9.60;;;9.00;;
76788;SDS011;65740;52.464;13.446;2023-06-22T04:02:48;9.97;;;9.27;;
76788;SDS011;65740;52.464;13.446;2023-06-22T04:05:13;8.73;;;8.13;;
76788;SDS011;65740;52.464;13.446;2023-06-22T04:07:39;10.37;;;9.67;;
76788;SDS011;65740;52.464;13.446;2023-06-22T04:10:04;10.27;;;9.47;;
76788;SDS011;65740;52.464;13.446;2023-06-22T04:12:30;9.87;;;9.17;;
76788;SDS011;65740;52.464;13.446;2023-06-22T04:14:56;10.17;;;9.47;;
76788;SDS011;65740;52.464;13.446;2023-06-22T04:17:22;10.47;;;9.77;;
76788;SDS011;65740;52.464;13.446;2023-06-22T04:19:49;9.60;;;9.00;;
76788;SDS011;65740;52.464;13.446;2023-06-22T04:22:15;9.40;;;8.80;;
76788;SDS011;65740;52.464;13.446;2023-06-22T04:24:41;10.27;;;9.47;;
76788;SDS011;65740;52.464;13.446;2023-06-22T04:27:07;10.30;;;9.60;;
76788;SDS011;65740;52.464;13.446;2023-06-22T04:29:32;10.00;;;9.30;;
76788;SDS011;65740;52.464;13.446;2023-06-22T04:31:58;10.10;;;9.40;;
76788;SDS011;65740;52.464;13.446;2023-06-22T04:34:27;9.63;;;8.93;;
76788;SDS011;65740;52.464;13.446;2023-06-22T04:36:54;9.23;;;8.57;;
76788;SDS011;65740;52.464;13.446;2023-06-22T04:39:20;9.03;;;8.43;;
76788;SDS011;65740;52.464;13.446;2023-06-22T04:41:46;10.33;;;9.63;;
76788;SDS011;65740;52.464;13.446;2023-06-22T04:44:12;10.07;;;9.37;;
76788;SDS011;65740;52.464;13.446;2023-06-22T04:46:48;9.97;;;9.27;;
76788;SDS011;65740;52.464;13.446;2023-06-22T04:49:18;9.93;;;9.33;;
76788;SDS011;65740;52.464;13.446;2023-06-22T04:51:44;9.47;;;8.77;;
76788;SDS011;65740;52.464;13.446;2023-06-22T04:54:10;10.13;;;9.43;;
76788;SDS011;65740;52.464;13.446;2023-06-22T04:56:36;10.10;;;9.40;;
76788;SDS011;65740;52.464;13.446;2023-06-22T04:59:02;9.40;;;8.70;;
76788;SDS011;65740;52.464;13.446;2023-06-22T05:01:30;9.80;;;9.10;;
76788;SDS011;65740;52.464;13.446;2023-06-22T05:03:56;9.83;;;9.13;;
76788;SDS011;65740;52.464;13.446;2023-06-22T05:06:26;9.80;;;9.13;;
76788;SDS011;65740;52.464;13.446;2023-06-22T05:08:53;9.67;;;9.07;;
76788;SDS011;65740;52.464;13.446;2023-06-22T05:11:25;9.57;;;8.87;;
76788;SDS011;65740;52.464;13.446;2023-06-22T05:13:51;10.30;;;9.60;;
76788;SDS011;65740;52.464;13.446;2023-06-22T05:16:17;9.93;;;9.33;;
76788;SDS011;65740;52.464;13.446;2023-06-22T05:18:49;10.20;;;9.50;;
76788;SDS011;65740;52.464;13.446;2023-06-22T05:21:16;8.90;;;8.30;;
76788;SDS011;65740;52.464;13.446;2023-06-22T05:23:41;9.97;;;9.37;;
76788;SDS011;65740;52.464;13.446;2023-06-22T05:26:07;9.83;;;9.23;;
76788;SDS011;65740;52.464;13.446;2023-06-22T05:28:34;9.53;;;8.90;;
76788;SDS011;65740;52.464;13.446;2023-06-22T05:31:00;9.57;;;8.97;;
76788;SDS011;65740;52.464;13.446;2023-06-22T05:33:25;9.40;;;8.80;;
76788;SDS011;65740;52.464;13.446;2023-06-22T05:35:51;9.80;;;9.10;;
76788;SDS011;65740;52.464;13.446;2023-06-22T05:38:17;10.23;;;9.53;;
76788;SDS011;65740;52.464;13.446;2023-06-22T05:40:42;9.47;;;8.87;;
76788;SDS011;65740;52.464;13.446;2023-06-22T05:43:08;9.40;;;8.80;;
76788;SDS011;65740;52.464;13.446;2023-06-22T05:45:33;8.73;;;8.13;;
76788;SDS011;65740;52.464;13.446;2023-06-22T05:47:59;9.97;;;9.27;;
76788;SDS011;65740;52.464;13.446;2023-06-22T05:50:25;10.00;;;9.30;;
76788;SDS011;65740;52.464;13.446;2023-06-22T05:52:50;8.83;;;8.23;;
76788;SDS011;65740;52.464;13.446;2023-06-22T05:55:16;9.47;;;8.87;;
76788;SDS011;65740;52.464;13.446;2023-06-22T05:57:43;9.83;;;9.17;;
76788;SDS011;65740;52.464;13.446;2023-06-22T06:00:09;9.00;;;8.40;;
76788;SDS011;65740;52.464;13.446;2023-06-22T06:02:36;9.13;;;8.53;;
76788;SDS011;65740;52.464;13.446;2023-06-22T06:05:02;9.37;;;8.77;;
76788;SDS011;65740;52.464;13.446;2023-06-22T06:07:28;9.53;;;8.83;;
76788;SDS011;65740;52.464;13.446;2023-06-22T06:09:54;9.67;;;9.07;;
76788;SDS011;65740;52.464;13.446;2023-06-22T06:12:20;9.43;;;8.83;;
76788;SDS011;65740;52.464;13.446;2023-06-22T06:14:45;8.97;;;8.40;;
76788;SDS011;65740;52.464;13.446;2023-06-22T06:17:12;9.10;;;8.50;;
76788;SDS011;65740;52.464;13.446;2023-06-22T06:19:38;8.50;;;7.90;;
76788;SDS011;65740;52.464;13.446;2023-06-22T06:22:03;8.77;;;8.17;;
76788;SDS011;65740;52.464;13.446;2023-06-22T06:24:29;8.50;;;8.00;;
76788;SDS011;65740;52.464;13.446;2023-06-22T06:26:54;9.30;;;8.70;;
76788;SDS011;65740;52.464;13.446;2023-06-22T06:29:20;9.53;;;8.93;;
76788;SDS011;65740;52.464;13.446;2023-06-22T06:31:46;9.30;;;8.70;;
76788;SDS011;65740;52.464;13.446;2023-06-22T06:34:13;9.33;;;8.73;;
76788;SDS011;65740;52.464;13.446;2023-06-22T06:36:38;9.47;;;8.87;;
76788;SDS011;65740;52.464;13.446;2023-06-22T06:39:04;9.73;;;8.97;;
76788;SDS011;65740;52.464;13.446;2023-06-22T06:41:30;8.53;;;7.93;;
76788;SDS011;65740;52.464;13.446;2023-06-22T06:43:56;8.63;;;8.13;;
76788;SDS011;65740;52.464;13.446;2023-06-22T06:46:21;8.40;;;7.80;;
76788;SDS011;65740;52.464;13.446;2023-06-22T06:48:47;9.40;;;8.70;;
76788;SDS011;65740;52.464;13.446;2023-06-22T06:51:12;10.20;;;9.43;;
76788;SDS011;65740;52.464;13.446;2023-06-22T06:53:38;8.30;;;7.70;;
76788;SDS011;65740;52.464;13.446;2023-06-22T06:56:03;8.00;;;7.50;;
76788;SDS011;65740;52.464;13.446;2023-06-22T06:58:30;7.57;;;6.87;;
76788;SDS011;65740;52.464;13.446;2023-06-22T07:00:56;7.60;;;7.07;;
76788;SDS011;65740;52.464;13.446;2023-06-22T07:03:22;7.80;;;7.30;;
76788;SDS011;65740;52.464;13.446;2023-06-22T07:05:47;8.60;;;7.70;;
76788;SDS011;65740;52.464;13.446;2023-06-22T07:08:13;8.33;;;7.57;;
76788;SDS011;65740;52.464;13.446;2023-06-22T07:10:38;8.33;;;7.70;;
76788;SDS011;65740;52.464;13.446;2023-06-22T07:13:04;8.13;;;7.53;;
76788;SDS011;65740;52.464;13.446;2023-06-22T07:15:29;8.10;;;7.33;;
76788;SDS011;65740;52.464;13.446;2023-06-22T07:17:55;7.27;;;6.77;;
76788;SDS011;65740;52.464;13.446;2023-06-22T07:20:21;7.20;;;6.50;;
76788;SDS011;65740;52.464;13.446;2023-06-22T07:22:46;7.17;;;6.67;;
76788;SDS011;65740;52.464;13.446;2023-06-22T07:25:12;7.90;;;7.30;;
76788;SDS011;65740;52.464;13.446;2023-06-22T07:30:27;7.90;;;7.30;;
76788;SDS011;65740;52.464;13.446;2023-06-22T07:32:54;8.47;;;7.67;;
76788;SDS011;65740;52.464;13.446;2023-06-22T07:35:19;7.70;;;7.20;;
76788;SDS011;65740;52.464;13.446;2023-06-22T07:37:45;7.80;;;7.10;;
76788;SDS011;65740;52.464;13.446;2023-06-22T07:40:11;7.83;;;7.13;;
76788;SDS011;65740;52.464;13.446;2023-06-22T07:42:37;7.23;;;6.70;;
76788;SDS011;65740;52.464;13.446;2023-06-22T07:45:03;8.23;;;7.63;;
76788;SDS011;65740;52.464;13.446;2023-06-22T07:47:30;7.30;;;6.67;;
76788;SDS011;65740;52.464;13.446;2023-06-22T07:50:00;7.37;;;6.77;;
76788;SDS011;65740;52.464;13.446;2023-06-22T07:52:27;6.53;;;6.13;;
76788;SDS011;65740;52.464;13.446;2023-06-22T07:54:54;6.63;;;6.13;;
76788;SDS011;65740;52.464;13.446;2023-06-22T07:57:20;6.80;;;6.20;;
76788;SDS011;65740;52.464;13.446;2023-06-22T07:59:46;7.00;;;6.60;;
76788;SDS011;65740;52.464;13.446;2023-06-22T08:02:12;6.27;;;5.80;;
76788;SDS011;65740;52.464;13.446;2023-06-22T08:04:37;6.93;;;6.47;;
76788;SDS011;65740;52.464;13.446;2023-06-22T08:07:04;6.33;;;5.93;;
76788;SDS011;65740;52.464;13.446;2023-06-22T08:09:30;6.53;;;6.03;;
76788;SDS011;65740;52.464;13.446;2023-06-22T08:11:57;6.50;;;6.10;;
76788;SDS011;65740;52.464;13.446;2023-06-22T08:14:23;7.20;;;6.70;;
76788;SDS011;65740;52.464;13.446;2023-06-22T08:16:52;6.07;;;5.67;;
76788;SDS011;65740;52.464;13.446;2023-06-22T08:19:18;8.13;;;7.33;;
76788;SDS011;65740;52.464;13.446;2023-06-22T08:21:43;8.53;;;7.20;;
76788;SDS011;65740;52.464;13.446;2023-06-22T08:24:09;7.73;;;7.03;;
76788;SDS011;65740;52.464;13.446;2023-06-22T08:26:35;6.93;;;6.30;;
76788;SDS011;65740;52.464;13.446;2023-06-22T08:29:02;7.63;;;6.90;;
76788;SDS011;65740;52.464;13.446;2023-06-22T08:31:29;6.33;;;5.83;;
76788;SDS011;65740;52.464;13.446;2023-06-22T08:33:55;6.57;;;6.07;;
76788;SDS011;65740;52.464;13.446;2023-06-22T08:36:20;6.63;;;6.10;;
76788;SDS011;65740;52.464;13.446;2023-06-22T08:38:46;7.17;;;6.47;;
76788;SDS011;65740;52.464;13.446;2023-06-22T08:41:16;7.10;;;6.50;;
76788;SDS011;65740;52.464;13.446;2023-06-22T08:43:42;6.50;;;5.90;;
76788;SDS011;65740;52.464;13.446;2023-06-22T08:46:09;6.70;;;6.10;;
76788;SDS011;65740;52.464;13.446;2023-06-22T08:48:35;6.40;;;5.90;;
76788;SDS011;65740;52.464;13.446;2023-06-22T08:51:01;7.00;;;6.50;;
76788;SDS011;65740;52.464;13.446;2023-06-22T08:53:27;5.90;;;5.50;;
76788;SDS011;65740;52.464;13.446;2023-06-22T08:55:53;6.30;;;5.80;;
76788;SDS011;65740;52.464;13.446;2023-06-22T08:58:18;6.30;;;5.90;;
76788;SDS011;65740;52.464;13.446;2023-06-22T09:00:45;6.50;;;6.00;;
76788;SDS011;65740;52.464;13.446;2023-06-22T09:03:10;5.83;;;5.43;;
76788;SDS011;65740;52.464;13.446;2023-06-22T09:05:37;6.70;;;6.07;;
76788;SDS011;65740;52.464;13.446;2023-06-22T09:08:03;6.03;;;5.63;;
76788;SDS011;65740;52.464;13.446;2023-06-22T09:10:28;6.77;;;6.00;;
76788;SDS011;65740;52.464;13.446;2023-06-22T09:12:54;6.90;;;5.90;;
76788;SDS011;65740;52.464;13.446;2023-06-22T09:15:19;6.70;;;6.20;;
76788;SDS011;65740;52.464;13.446;2023-06-22T09:17:45;6.33;;;5.83;;
76788;SDS011;65740;52.464;13.446;2023-06-22T09:20:11;7.37;;;6.77;;
76788;SDS011;65740;52.464;13.446;2023-06-22T09:22:37;6.80;;;6.30;;
76788;SDS011;65740;52.464;13.446;2023-06-22T09:25:04;5.63;;;5.23;;
76788;SDS011;65740;52.464;13.446;2023-06-22T09:27:30;6.40;;;6.00;;
76788;SDS011;65740;52.464;13.446;2023-06-22T09:29:55;6.67;;;5.90;;
76788;SDS011;65740;52.464;13.446;2023-06-22T09:32:23;6.50;;;6.00;;
76788;SDS011;65740;52.464;13.446;2023-06-22T09:34:50;6.60;;;6.10;;
76788;SDS011;65740;52.464;13.446;2023-06-22T09:37:15;6.47;;;5.90;;
76788;SDS011;65740;52.464;13.446;2023-06-22T09:39:41;6.47;;;5.97;;
76788;SDS011;65740;52.464;13.446;2023-06-22T09:42:07;6.43;;;5.90;;
76788;SDS011;65740;52.464;13.446;2023-06-22T09:44:33;6.40;;;5.97;;
76788;SDS011;65740;52.464;13.446;2023-06-22T09:46:58;6.40;;;5.90;;
76788;SDS011;65740;52.464;13.446;2023-06-22T09:49:24;8.37;;;6.30;;
76788;SDS011;65740;52.464;13.446;2023-06-22T09:51:50;7.60;;;5.67;;
76788;SDS011;65740;52.464;13.446;2023-06-22T09:54:17;6.80;;;5.83;;
76788;SDS011;65740;52.464;13.446;2023-06-22T09:56:42;6.53;;;5.77;;
76788;SDS011;65740;52.464;13.446;2023-06-22T09:59:08;7.00;;;6.40;;
76788;SDS011;65740;52.464;13.446;2023-06-22T10:01:34;7.00;;;6.40;;
76788;SDS011;65740;52.464;13.446;2023-06-22T10:03:59;6.60;;;6.10;;
76788;SDS011;65740;52.464;13.446;2023-06-22T10:06:27;7.00;;;6.40;;
76788;SDS011;65740;52.464;13.446;2023-06-22T10:08:52;8.47;;;6.90;;
76788;SDS011;65740;52.464;13.446;2023-06-22T10:11:18;7.77;;;6.90;;
76788;SDS011;65740;52.464;13.446;2023-06-22T10:13:44;6.97;;;6.40;;
76788;SDS011;65740;52.464;13.446;2023-06-22T10:16:10;7.90;;;6.43;;
76788;SDS011;65740;52.464;13.446;2023-06-22T10:18:35;7.03;;;6.43;;
76788;SDS011;65740;52.464;13.446;2023-06-22T10:21:01;6.90;;;6.20;;
76788;SDS011;65740;52.464;13.446;2023-06-22T10:23:27;7.20;;;6.60;;
76788;SDS011;65740;52.464;13.446;2023-06-22T10:25:53;6.73;;;6.23;;
76788;SDS011;65740;52.464;13.446;2023-06-22T10:28:18;6.30;;;5.80;;
76788;SDS011;65740;52.464;13.446;2023-06-22T10:30:44;5.83;;;5.43;;
76788;SDS011;65740;52.464;13.446;2023-06-22T10:33:10;7.03;;;6.23;;
76788;SDS011;65740;52.464;13.446;2023-06-22T10:35:37;6.57;;;6.07;;
76788;SDS011;65740;52.464;13.446;2023-06-22T10:38:03;12.63;;;5.83;;
76788;SDS011;65740;52.464;13.446;2023-06-22T10:40:29;6.60;;;6.03;;
76788;SDS011;65740;52.464;13.446;2023-06-22T10:42:55;6.17;;;5.67;;
76788;SDS011;65740;52.464;13.446;2023-06-22T10:45:21;6.47;;;5.73;;
76788;SDS011;65740;52.464;13.446;2023-06-22T10:47:46;6.37;;;5.57;;
76788;SDS011;65740;52.464;13.446;2023-06-22T10:50:12;6.40;;;5.80;;
76788;SDS011;65740;52.464;13.446;2023-06-22T10:52:38;6.23;;;5.73;;
76788;SDS011;65740;52.464;13.446;2023-06-22T10:55:04;6.50;;;6.10;;
76788;SDS011;65740;52.464;13.446;2023-06-22T10:57:30;6.13;;;5.73;;
76788;SDS011;65740;52.464;13.446;2023-06-22T10:59:56;7.60;;;6.20;;
76788;SDS011;65740;52.464;13.446;2023-06-22T11:02:21;6.10;;;5.70;;
76788;SDS011;65740;52.464;13.446;2023-06-22T11:04:48;9.23;;;6.20;;
76788;SDS011;65740;52.464;13.446;2023-06-22T11:07:15;8.10;;;6.23;;
76788;SDS011;65740;52.464;13.446;2023-06-22T11:09:42;13.10;;;11.73;;
76788;SDS011;65740;52.464;13.446;2023-06-22T11:12:08;11.97;;;11.07;;
76788;SDS011;65740;52.464;13.446;2023-06-22T11:14:34;11.00;;;9.23;;
76788;SDS011;65740;52.464;13.446;2023-06-22T11:16:59;12.07;;;9.30;;
76788;SDS011;65740;52.464;13.446;2023-06-22T11:19:25;8.23;;;7.53;;
76788;SDS011;65740;52.464;13.446;2023-06-22T11:21:51;8.27;;;7.40;;
76788;SDS011;65740;52.464;13.446;2023-06-22T11:24:17;8.83;;;7.70;;
76788;SDS011;65740;52.464;13.446;2023-06-22T11:26:42;8.47;;;7.23;;
76788;SDS011;65740;52.464;13.446;2023-06-22T11:29:08;8.50;;;7.70;;
76788;SDS011;65740;52.464;13.446;2023-06-22T11:31:34;8.70;;;7.90;;
76788;SDS011;65740;52.464;13.446;2023-06-22T11:34:00;10.43;;;9.27;;
76788;SDS011;65740;52.464;13.446;2023-06-22T11:36:26;9.37;;;7.67;;
76788;SDS011;65740;52.464;13.446;2023-06-22T11:38:52;8.87;;;8.10;;
76788;SDS011;65740;52.464;13.446;2023-06-22T11:41:18;8.23;;;7.53;;
76788;SDS011;65740;52.464;13.446;2023-06-22T11:43:44;8.10;;;7.43;;
76788;SDS011;65740;52.464;13.446;2023-06-22T11:46:09;9.47;;;8.57;;
76788;SDS011;65740;52.464;13.446;2023-06-22T11:48:35;9.20;;;8.50;;
76788;SDS011;65740;52.464;13.446;2023-06-22T11:51:01;7.47;;;6.80;;
76788;SDS011;65740;52.464;13.446;2023-06-22T11:53:28;8.43;;;7.70;;
76788;SDS011;65740;52.464;13.446;2023-06-22T11:55:54;8.77;;;7.87;;
76788;SDS011;65740;52.464;13.446;2023-06-22T11:58:20;7.40;;;6.90;;
76788;SDS011;65740;52.464;13.446;2023-06-22T12:00:46;9.67;;;8.70;;
76788;SDS011;65740;52.464;13.446;2023-06-22T12:03:12;13.40;;;12.10;;
76788;SDS011;65740;52.464;13.446;2023-06-22T12:05:39;13.97;;;11.17;;
76788;SDS011;65740;52.464;13.446;2023-06-22T12:08:06;10.10;;;9.20;;
76788;SDS011;65740;52.464;13.446;2023-06-22T12:10:32;10.00;;;9.13;;
76788;SDS011;65740;52.464;13.446;2023-06-22T12:12:57;9.20;;;8.40;;
76788;SDS011;65740;52.464;13.446;2023-06-22T12:15:25;9.00;;;8.30;;
76788;SDS011;65740;52.464;13.446;2023-06-22T12:17:52;8.87;;;8.17;;
76788;SDS011;65740;52.464;13.446;2023-06-22T12:20:18;8.93;;;8.20;;
76788;SDS011;65740;52.464;13.446;2023-06-22T12:22:44;7.80;;;7.13;;
76788;SDS011;65740;52.464;13.446;2023-06-22T12:25:10;7.43;;;6.93;;
76788;SDS011;65740;52.464;13.446;2023-06-22T12:27:36;8.70;;;7.90;;
76788;SDS011;65740;52.464;13.446;2023-06-22T12:30:03;6.87;;;6.47;;
76788;SDS011;65740;52.464;13.446;2023-06-22T12:32:31;7.93;;;7.37;;
76788;SDS011;65740;52.464;13.446;2023-06-22T12:34:57;7.77;;;7.07;;
76788;SDS011;65740;52.464;13.446;2023-06-22T12:37:23;7.80;;;7.30;;
76788;SDS011;65740;52.464;13.446;2023-06-22T12:39:48;7.50;;;6.93;;
76788;SDS011;65740;52.464;13.446;2023-06-22T12:42:15;8.50;;;7.67;;
76788;SDS011;65740;52.464;13.446;2023-06-22T12:44:41;7.93;;;7.10;;
76788;SDS011;65740;52.464;13.446;2023-06-22T12:47:07;7.20;;;6.70;;
76788;SDS011;65740;52.464;13.446;2023-06-22T12:49:34;6.80;;;6.30;;
76788;SDS011;65740;52.464;13.446;2023-06-22T12:52:00;7.77;;;7.07;;
76788;SDS011;65740;52.464;13.446;2023-06-22T12:54:26;7.93;;;7.30;;
76788;SDS011;65740;52.464;13.446;2023-06-22T12:56:54;7.43;;;6.83;;
76788;SDS011;65740;52.464;13.446;2023-06-22T12:59:20;7.03;;;6.53;;
76788;SDS011;65740;52.464;13.446;2023-06-22T13:01:45;8.00;;;7.20;;
76788;SDS011;65740;52.464;13.446;2023-06-22T13:04:11;7.20;;;6.60;;
76788;SDS011;65740;52.464;13.446;2023-06-22T13:06:40;7.40;;;6.80;;
76788;SDS011;65740;52.464;13.446;2023-06-22T13:09:12;7.90;;;7.30;;
76788;SDS011;65740;52.464;13.446;2023-06-22T13:11:39;7.53;;;6.90;;
76788;SDS011;65740;52.464;13.446;2023-06-22T13:14:04;8.40;;;7.80;;
76788;SDS011;65740;52.464;13.446;2023-06-22T13:16:30;7.87;;;7.13;;
76788;SDS011;65740;52.464;13.446;2023-06-22T13:18:55;9.03;;;8.30;;
76788;SDS011;65740;52.464;13.446;2023-06-22T13:21:21;8.53;;;7.73;;
76788;SDS011;65740;52.464;13.446;2023-06-22T13:23:47;8.17;;;7.20;;
76788;SDS011;65740;52.464;13.446;2023-06-22T13:26:12;7.10;;;6.70;;
76788;SDS011;65740;52.464;13.446;2023-06-22T13:28:38;8.67;;;8.07;;
76788;SDS011;65740;52.464;13.446;2023-06-22T13:31:04;8.03;;;7.33;;
76788;SDS011;65740;52.464;13.446;2023-06-22T13:33:30;8.27;;;7.57;;
76788;SDS011;65740;52.464;13.446;2023-06-22T13:35:56;7.40;;;6.90;;
76788;SDS011;65740;52.464;13.446;2023-06-22T13:38:22;7.97;;;7.37;;
76788;SDS011;65740;52.464;13.446;2023-06-22T13:40:48;7.67;;;7.17;;
76788;SDS011;65740;52.464;13.446;2023-06-22T13:43:14;8.03;;;7.43;;
76788;SDS011;65740;52.464;13.446;2023-06-22T13:45:40;8.00;;;7.40;;
76788;SDS011;65740;52.464;13.446;2023-06-22T13:48:06;8.57;;;7.90;;
76788;SDS011;65740;52.464;13.446;2023-06-22T13:50:32;8.33;;;7.63;;
76788;SDS011;65740;52.464;13.446;2023-06-22T13:52:58;9.80;;;9.10;;
76788;SDS011;65740;52.464;13.446;2023-06-22T13:55:24;9.50;;;8.60;;
76788;SDS011;65740;52.464;13.446;2023-06-22T13:57:49;9.63;;;8.73;;
76788;SDS011;65740;52.464;13.446;2023-06-22T14:00:16;9.13;;;8.43;;
76788;SDS011;65740;52.464;13.446;2023-06-22T14:02:42;9.17;;;8.53;;
76788;SDS011;65740;52.464;13.446;2023-06-22T14:05:08;9.50;;;8.70;;
76788;SDS011;65740;52.464;13.446;2023-06-22T14:07:33;8.80;;;8.00;;
76788;SDS011;65740;52.464;13.446;2023-06-22T14:10:00;9.80;;;8.20;;
76788;SDS011;65740;52.464;13.446;2023-06-22T14:12:25;9.03;;;8.33;;
76788;SDS011;65740;52.464;13.446;2023-06-22T14:14:51;8.17;;;7.57;;
76788;SDS011;65740;52.464;13.446;2023-06-22T14:17:17;8.53;;;7.77;;
76788;SDS011;65740;52.464;13.446;2023-06-22T14:19:48;8.40;;;7.80;;
76788;SDS011;65740;52.464;13.446;2023-06-22T14:22:14;7.60;;;7.00;;
76788;SDS011;65740;52.464;13.446;2023-06-22T14:24:40;8.63;;;8.00;;
76788;SDS011;65740;52.464;13.446;2023-06-22T14:27:06;8.90;;;8.10;;
76788;SDS011;65740;52.464;13.446;2023-06-22T14:29:33;8.63;;;8.03;;
76788;SDS011;65740;52.464;13.446;2023-06-22T14:32:00;8.53;;;7.73;;
76788;SDS011;65740;52.464;13.446;2023-06-22T14:34:25;9.00;;;8.10;;
76788;SDS011;65740;52.464;13.446;2023-06-22T14:36:51;8.70;;;8.20;;
76788;SDS011;65740;52.464;13.446;2023-06-22T14:39:17;8.17;;;7.47;;